createdAt,value
2022-09-28T00:00:11.853Z,10.08
2022-09-28T00:02:42.470Z,9.97
2022-09-28T00:05:12.661Z,9.97
2022-09-28T00:07:41.975Z,9.94
2022-09-28T00:10:12.392Z,9.94
2022-09-28T00:12:40.388Z,9.87
2022-09-28T00:15:09.419Z,9.86
2022-09-28T00:17:37.347Z,9.86
2022-09-28T00:20:06.312Z,9.85
2022-09-28T00:22:34.209Z,9.77
2022-09-28T00:25:02.139Z,9.76
2022-09-28T00:27:31.399Z,9.76
2022-09-28T00:29:59.947Z,9.74
2022-09-28T00:32:28.556Z,9.76
2022-09-28T00:34:57.632Z,9.76
2022-09-28T00:37:25.466Z,9.74
2022-09-28T00:39:53.415Z,9.81
2022-09-28T00:42:23.415Z,9.79
2022-09-28T00:44:53.627Z,9.79
2022-09-28T00:47:49.812Z,9.73
2022-09-28T00:50:23.132Z,9.73
2022-09-28T00:52:54.512Z,9.74
2022-09-28T00:55:28.023Z,9.81
2022-09-28T00:57:58.908Z,9.72
2022-09-28T01:00:28.417Z,9.81
2022-09-28T01:02:56.531Z,9.67
2022-09-28T01:05:24.951Z,9.60
2022-09-28T01:07:52.874Z,9.61
2022-09-28T01:10:20.724Z,9.72
2022-09-28T01:12:48.623Z,9.69
2022-09-28T01:15:16.769Z,9.56
2022-09-28T01:17:55.290Z,9.62
2022-09-28T01:20:29.139Z,9.59
2022-09-28T01:23:18.991Z,9.62
2022-09-28T01:25:52.514Z,9.72
2022-09-28T01:28:22.809Z,9.60
2022-09-28T01:30:58.012Z,9.59
2022-09-28T01:33:29.097Z,9.56
2022-09-28T01:36:00.770Z,9.61
2022-09-28T01:38:31.422Z,9.57
2022-09-28T01:41:00.050Z,9.55
2022-09-28T01:43:31.529Z,9.61
2022-09-28T01:46:02.036Z,9.61
2022-09-28T01:48:33.442Z,9.62
2022-09-28T01:51:06.828Z,9.57
2022-09-28T01:53:38.459Z,9.59
2022-09-28T01:56:12.515Z,9.55
2022-09-28T01:58:45.747Z,9.53
2022-09-28T02:01:17.211Z,9.52
2022-09-28T02:03:50.216Z,9.52
2022-09-28T02:06:19.012Z,9.62
2022-09-28T02:08:51.891Z,9.55
2022-09-28T02:11:21.760Z,9.57
2022-09-28T02:13:56.784Z,9.48
2022-09-28T02:16:31.403Z,9.51
2022-09-28T02:18:59.538Z,9.46
2022-09-28T02:21:29.237Z,9.47
2022-09-28T02:23:59.771Z,9.47
2022-09-28T02:26:31.671Z,9.47
2022-09-28T02:29:01.123Z,9.43
2022-09-28T02:31:29.426Z,9.44
2022-09-28T02:33:58.558Z,9.41
2022-09-28T02:36:27.070Z,9.37
2022-09-28T02:38:55.334Z,9.39
2022-09-28T02:41:31.558Z,9.38
2022-09-28T02:44:08.643Z,9.44
2022-09-28T02:46:43.451Z,9.44
2022-09-28T02:49:26.429Z,9.48
2022-09-28T02:52:06.637Z,9.47
2022-09-28T02:54:52.751Z,9.50
2022-09-28T02:57:29.380Z,9.49
2022-09-28T03:00:05.541Z,9.54
2022-09-28T03:02:36.683Z,9.52
2022-09-28T03:05:13.474Z,9.58
2022-09-28T03:07:44.851Z,9.56
2022-09-28T03:10:16.738Z,9.51
2022-09-28T03:12:46.884Z,9.52
2022-09-28T03:15:22.564Z,9.51
2022-09-28T03:17:50.726Z,9.52
2022-09-28T03:20:19.024Z,9.48
2022-09-28T03:23:05.927Z,9.45
2022-09-28T03:25:34.883Z,9.50
2022-09-28T03:28:03.210Z,9.43
2022-09-28T03:30:36.135Z,9.46
2022-09-28T03:33:04.395Z,9.44
2022-09-28T03:35:33.637Z,9.47
2022-09-28T03:38:01.509Z,9.49
2022-09-28T03:40:31.753Z,9.41
2022-09-28T03:43:01.136Z,9.41
2022-09-28T03:45:29.255Z,9.40
2022-09-28T03:47:58.726Z,9.37
2022-09-28T03:50:26.635Z,9.46
2022-09-28T03:52:54.535Z,9.46
2022-09-28T03:55:22.392Z,9.56
2022-09-28T03:57:55.635Z,9.49
2022-09-28T04:00:23.874Z,9.49
2022-09-28T04:02:51.858Z,9.55
2022-09-28T04:05:21.077Z,9.56
2022-09-28T04:07:48.998Z,9.56
2022-09-28T04:10:17.281Z,9.54
2022-09-28T04:12:45.906Z,9.51
2022-09-28T04:15:15.615Z,9.58
2022-09-28T04:17:44.816Z,9.60
2022-09-28T04:20:27.251Z,9.60
2022-09-28T04:23:04.280Z,9.57
2022-09-28T04:25:32.297Z,9.60
2022-09-28T04:28:17.452Z,9.62
2022-09-28T04:30:47.517Z,9.58
2022-09-28T04:33:15.370Z,9.54
2022-09-28T04:35:44.604Z,9.58
2022-09-28T04:38:12.515Z,9.55
2022-09-28T04:40:41.893Z,9.54
2022-09-28T04:43:09.769Z,9.50
2022-09-28T04:45:37.741Z,9.57
2022-09-28T04:48:09.662Z,9.60
2022-09-28T04:50:55.822Z,9.60
2022-09-28T04:53:24.269Z,9.55
2022-09-28T04:55:59.490Z,9.61
2022-09-28T04:58:28.130Z,9.64
2022-09-28T05:00:59.815Z,9.62
2022-09-28T05:03:51.219Z,9.65
2022-09-28T05:06:35.858Z,9.58
2022-09-28T05:09:06.944Z,9.58
2022-09-28T05:11:34.774Z,9.62
2022-09-28T05:14:03.088Z,9.63
2022-09-28T05:16:33.654Z,9.65
2022-09-28T05:19:20.379Z,9.67
2022-09-28T05:21:49.815Z,9.67
2022-09-28T05:24:17.737Z,9.62
2022-09-28T05:26:51.002Z,9.68
2022-09-28T05:29:19.755Z,9.62
2022-09-28T05:31:50.286Z,9.63
2022-09-28T05:34:23.697Z,9.70
2022-09-28T05:36:52.978Z,9.65
2022-09-28T05:39:21.076Z,9.65
2022-09-28T05:41:48.963Z,9.65
2022-09-28T05:44:16.982Z,9.63
2022-09-28T05:46:45.313Z,9.68
2022-09-28T05:49:13.975Z,9.66
2022-09-28T05:51:41.824Z,9.63
2022-09-28T05:54:11.810Z,9.66
2022-09-28T05:56:42.801Z,9.65
2022-09-28T05:59:12.065Z,9.70
2022-09-28T06:01:40.172Z,9.66
2022-09-28T06:04:10.415Z,9.71
2022-09-28T06:06:38.832Z,9.67
2022-09-28T06:09:07.110Z,9.64
2022-09-28T06:11:53.367Z,9.58
2022-09-28T06:14:28.571Z,9.63
2022-09-28T06:16:56.454Z,9.62
2022-09-28T06:19:24.410Z,9.62
2022-09-28T06:22:10.651Z,9.60
2022-09-28T06:24:45.988Z,9.69
2022-09-28T06:27:15.211Z,9.75
2022-09-28T06:29:43.415Z,9.68
2022-09-28T06:32:12.357Z,9.69
2022-09-28T06:34:42.764Z,9.63
2022-09-28T06:37:10.705Z,9.73
2022-09-28T06:39:38.624Z,9.76
2022-09-28T06:42:06.820Z,9.76
2022-09-28T06:44:54.490Z,9.84
2022-09-28T06:47:43.390Z,9.83
2022-09-28T06:50:35.884Z,9.93
2022-09-28T06:53:28.210Z,9.95
2022-09-28T06:56:03.288Z,10.04
2022-09-28T06:58:32.294Z,10.08
2022-09-28T07:01:02.493Z,10.28
2022-09-28T07:03:37.262Z,10.16
2022-09-28T07:06:47.942Z,10.25
2022-09-28T07:09:37.291Z,10.08
2022-09-28T07:12:13.399Z,10.17
2022-09-28T07:15:02.332Z,10.24
2022-09-28T07:17:35.334Z,10.25
2022-09-28T07:20:18.443Z,10.25
2022-09-28T07:22:47.905Z,10.32
2022-09-28T07:25:20.330Z,10.29
2022-09-28T07:28:01.484Z,10.33
2022-09-28T07:31:04.993Z,10.35
2022-09-28T07:34:00.557Z,10.59
2022-09-28T07:36:35.107Z,10.69
2022-09-28T07:39:03.854Z,10.55
2022-09-28T07:41:33.450Z,10.65
2022-09-28T07:44:06.496Z,10.74
2022-09-28T07:46:36.910Z,10.81
2022-09-28T07:49:25.456Z,10.88
2022-09-28T07:52:14.273Z,10.76
2022-09-28T07:55:07.514Z,10.98
2022-09-28T07:57:56.300Z,11.09
2022-09-28T08:00:48.349Z,11.08
2022-09-28T08:03:18.006Z,11.10
2022-09-28T08:05:48.047Z,11.01
2022-09-28T08:08:16.266Z,11.16
2022-09-28T08:10:47.295Z,10.99
2022-09-28T08:13:33.878Z,11.08
2022-09-28T08:16:34.223Z,11.21
2022-09-28T08:19:12.299Z,10.95
2022-09-28T08:21:46.182Z,10.85
2022-09-28T08:24:16.528Z,10.97
2022-09-28T08:26:45.442Z,10.86
2022-09-28T08:29:16.916Z,11.04
2022-09-28T08:32:01.590Z,11.39
2022-09-28T08:34:36.690Z,11.61
2022-09-28T08:37:09.712Z,11.35
2022-09-28T08:40:09.420Z,11.51
2022-09-28T08:42:48.984Z,11.62
2022-09-28T08:45:52.352Z,11.69
2022-09-28T08:49:13.530Z,11.43
2022-09-28T08:52:00.719Z,11.61
2022-09-28T08:54:56.718Z,11.62
2022-09-28T08:57:35.275Z,11.67
2022-09-28T09:00:09.596Z,12.02
2022-09-28T09:02:40.541Z,11.83
2022-09-28T09:05:15.922Z,11.97
2022-09-28T09:08:23.353Z,11.71
2022-09-28T09:10:54.198Z,11.68
2022-09-28T09:13:43.183Z,11.64
2022-09-28T09:16:19.024Z,11.88
2022-09-28T09:19:17.395Z,12.19
2022-09-28T09:22:11.708Z,12.59
2022-09-28T09:24:44.807Z,12.41
2022-09-28T09:27:36.783Z,11.96
2022-09-28T09:30:07.548Z,12.11
2022-09-28T09:32:41.170Z,12.66
2022-09-28T09:35:23.410Z,12.73
2022-09-28T09:38:07.058Z,12.83
2022-09-28T09:41:00.807Z,12.96
2022-09-28T09:44:19.955Z,13.06
2022-09-28T09:47:00.693Z,13.46
2022-09-28T09:49:40.375Z,13.59
2022-09-28T09:52:14.608Z,13.74
2022-09-28T09:54:45.783Z,13.34
2022-09-28T09:57:30.376Z,13.59
2022-09-28T10:00:28.996Z,13.71
2022-09-28T10:03:18.366Z,13.58
2022-09-28T10:05:49.895Z,13.51
2022-09-28T10:08:19.949Z,13.49
2022-09-28T10:10:50.847Z,13.51
2022-09-28T10:13:21.000Z,13.40
2022-09-28T10:15:51.767Z,12.92
2022-09-28T10:18:30.802Z,13.27
2022-09-28T10:21:14.267Z,13.68
2022-09-28T10:24:03.260Z,13.28
2022-09-28T10:26:36.394Z,13.31
2022-09-28T10:29:07.187Z,13.50
2022-09-28T10:31:38.432Z,13.72
2022-09-28T10:34:14.796Z,13.93
2022-09-28T10:36:55.378Z,13.68
2022-09-28T10:39:36.618Z,14.22
2022-09-28T10:42:07.799Z,14.70
2022-09-28T10:44:49.936Z,14.24
2022-09-28T10:47:48.687Z,14.45
2022-09-28T10:50:22.422Z,14.66
2022-09-28T10:52:54.656Z,14.54
2022-09-28T10:55:42.495Z,14.70
2022-09-28T10:58:25.696Z,14.56
2022-09-28T11:00:54.541Z,14.70
2022-09-28T11:03:27.052Z,14.51
2022-09-28T11:05:59.579Z,14.47
2022-09-28T11:08:31.297Z,14.51
2022-09-28T11:11:10.211Z,14.30
2022-09-28T11:13:43.647Z,14.34
2022-09-28T11:16:29.616Z,14.89
2022-09-28T11:19:05.207Z,15.30
2022-09-28T11:21:43.103Z,15.35
2022-09-28T11:24:21.134Z,14.76
2022-09-28T11:26:52.531Z,14.44
2022-09-28T11:29:26.751Z,14.45
2022-09-28T11:32:16.101Z,14.09
2022-09-28T11:35:25.997Z,14.02
2022-09-28T11:38:19.602Z,13.72
2022-09-28T11:41:32.471Z,13.49
2022-09-28T11:44:16.229Z,13.44
2022-09-28T11:46:52.519Z,13.34
2022-09-28T11:49:28.646Z,13.32
2022-09-28T11:52:00.838Z,13.24
2022-09-28T11:54:33.705Z,13.02
2022-09-28T11:57:05.039Z,13.06
2022-09-28T11:59:35.626Z,12.91
2022-09-28T12:02:11.121Z,12.78
2022-09-28T12:04:46.449Z,12.79
2022-09-28T12:07:19.950Z,12.84
2022-09-28T12:09:52.989Z,12.73
2022-09-28T12:12:26.029Z,12.68
2022-09-28T12:14:58.613Z,12.65
2022-09-28T12:17:30.084Z,12.76
2022-09-28T12:20:02.268Z,12.72
2022-09-28T12:22:36.041Z,12.90
2022-09-28T12:25:05.457Z,12.70
2022-09-28T12:27:39.047Z,12.49
2022-09-28T12:30:14.147Z,12.22
2022-09-28T12:32:45.586Z,12.05
2022-09-28T12:35:16.133Z,11.73
2022-09-28T12:37:58.632Z,11.81
2022-09-28T12:40:37.228Z,11.60
2022-09-28T12:43:21.358Z,11.56
2022-09-28T12:46:12.357Z,11.46
2022-09-28T12:50:20.136Z,11.33
2022-09-28T12:52:00.096Z,11.24
2022-09-28T12:54:44.216Z,11.23
2022-09-28T12:57:39.298Z,11.15
2022-09-28T13:00:10.518Z,11.27
2022-09-28T13:03:00.835Z,11.34
2022-09-28T13:05:41.306Z,11.31
2022-09-28T13:08:12.188Z,11.21
2022-09-28T13:10:42.982Z,11.23
2022-09-28T13:13:23.129Z,11.18
2022-09-28T13:15:56.360Z,11.23
2022-09-28T13:18:29.275Z,11.16
2022-09-28T13:21:04.178Z,11.11
2022-09-28T13:23:35.727Z,11.13
2022-09-28T13:26:23.809Z,11.19
2022-09-28T13:28:54.738Z,11.00
2022-09-28T13:31:30.899Z,11.06
2022-09-28T13:34:01.469Z,11.07
2022-09-28T13:36:37.911Z,11.04
2022-09-28T13:39:48.685Z,11.13
2022-09-28T13:42:41.504Z,11.08
2022-09-28T13:45:18.891Z,11.16
2022-09-28T13:47:59.656Z,11.41
2022-09-28T13:50:39.511Z,11.33
2022-09-28T13:53:16.401Z,11.30
2022-09-28T13:55:54.755Z,11.46
2022-09-28T13:58:26.097Z,11.42
2022-09-28T14:00:57.890Z,11.40
2022-09-28T14:03:28.309Z,11.50
2022-09-28T14:06:09.577Z,11.59
2022-09-28T14:08:45.618Z,11.56
2022-09-28T14:11:26.343Z,11.64
2022-09-28T14:14:05.837Z,11.68
2022-09-28T14:16:35.198Z,11.66
2022-09-28T14:19:06.958Z,11.79
2022-09-28T14:22:01.696Z,11.78
2022-09-28T14:24:46.207Z,11.62
2022-09-28T14:27:42.780Z,11.51
2022-09-28T14:30:26.884Z,11.32
2022-09-28T14:32:57.508Z,11.25
2022-09-28T14:35:29.665Z,11.16
2022-09-28T14:38:18.799Z,11.19
2022-09-28T14:41:10.580Z,11.07
2022-09-28T14:43:53.923Z,11.10
2022-09-28T14:46:37.392Z,11.09
2022-09-28T14:49:07.284Z,10.99
2022-09-28T14:52:06.671Z,10.96
2022-09-28T14:54:45.264Z,10.94
2022-09-28T14:57:33.973Z,10.83
2022-09-28T15:00:10.493Z,10.86
2022-09-28T15:02:40.291Z,10.83
2022-09-28T15:05:17.193Z,10.68
2022-09-28T15:07:47.960Z,10.75
2022-09-28T15:10:27.736Z,10.65
2022-09-28T15:12:57.201Z,10.82
2022-09-28T15:15:32.194Z,10.78
2022-09-28T15:18:16.415Z,10.78
2022-09-28T15:20:47.110Z,10.81
2022-09-28T15:23:34.810Z,10.83
2022-09-28T15:26:04.102Z,10.88
2022-09-28T15:28:32.102Z,10.98
2022-09-28T15:31:01.130Z,11.05
2022-09-28T15:33:49.324Z,11.05
2022-09-28T15:36:21.127Z,11.26
2022-09-28T15:38:56.844Z,11.22
2022-09-28T15:41:25.736Z,11.33
2022-09-28T15:44:23.494Z,11.60
2022-09-28T15:46:52.135Z,12.47
2022-09-28T15:49:26.936Z,13.21
2022-09-28T15:51:56.536Z,14.22
2022-09-28T15:54:26.319Z,14.98
2022-09-28T15:56:57.731Z,15.51
2022-09-28T15:59:31.838Z,15.87
2022-09-28T16:02:08.277Z,15.72
2022-09-28T16:04:40.545Z,15.89
2022-09-28T16:07:24.381Z,15.45
2022-09-28T16:10:01.626Z,14.94
2022-09-28T16:12:41.208Z,14.26
2022-09-28T16:15:18.140Z,14.08
2022-09-28T16:17:51.029Z,13.89
2022-09-28T16:20:22.245Z,13.92
2022-09-28T16:22:50.365Z,14.36
2022-09-28T16:25:23.001Z,14.65
2022-09-28T16:27:51.827Z,14.73
2022-09-28T16:30:24.114Z,14.79
2022-09-28T16:32:54.213Z,14.76
2022-09-28T16:35:26.517Z,14.53
2022-09-28T16:38:03.397Z,14.42
2022-09-28T16:40:32.502Z,13.89
2022-09-28T16:43:03.055Z,13.43
2022-09-28T16:45:31.131Z,12.98
2022-09-28T16:47:59.015Z,12.64
2022-09-28T16:50:28.223Z,12.39
2022-09-28T16:53:27.607Z,12.13
2022-09-28T16:55:55.543Z,11.93
2022-09-28T16:58:25.074Z,11.86
2022-09-28T17:00:54.534Z,11.59
2022-09-28T17:03:23.380Z,11.60
2022-09-28T17:05:53.538Z,11.42
2022-09-28T17:08:22.551Z,11.21
2022-09-28T17:11:14.519Z,11.16
2022-09-28T17:13:41.503Z,11.02
2022-09-28T17:16:13.134Z,10.91
2022-09-28T17:18:41.261Z,10.84
2022-09-28T17:21:15.666Z,10.87
2022-09-28T17:23:43.739Z,10.92
2022-09-28T17:26:18.547Z,10.85
2022-09-28T17:28:46.755Z,10.72
2022-09-28T17:31:16.666Z,10.61
2022-09-28T17:33:44.880Z,10.54
2022-09-28T17:36:16.457Z,10.50
2022-09-28T17:38:44.919Z,10.40
2022-09-28T17:41:16.807Z,10.36
2022-09-28T17:43:47.434Z,10.34
2022-09-28T17:46:26.310Z,10.35
2022-09-28T17:48:57.514Z,10.36
2022-09-28T17:51:27.274Z,10.36
2022-09-28T17:53:56.113Z,10.35
2022-09-28T17:56:27.489Z,10.29
2022-09-28T17:59:00.593Z,10.27
2022-09-28T18:01:33.746Z,10.23
2022-09-28T18:04:02.534Z,10.19
2022-09-28T18:06:33.511Z,10.13
2022-09-28T18:09:01.843Z,10.10
2022-09-28T18:11:29.797Z,10.06
2022-09-28T18:13:57.753Z,10.01
2022-09-28T18:16:27.796Z,10.00
2022-09-28T18:18:55.876Z,9.96
2022-09-28T18:21:23.806Z,9.96
2022-09-28T18:23:53.058Z,9.93
2022-09-28T18:26:20.923Z,9.86
2022-09-28T18:28:48.780Z,9.83
2022-09-28T18:31:19.207Z,9.80
2022-09-28T18:33:48.265Z,9.75
2022-09-28T18:36:16.324Z,9.73
2022-09-28T18:38:44.208Z,9.66
2022-09-28T18:41:16.384Z,9.72
2022-09-28T18:43:48.864Z,9.72
2022-09-28T18:46:17.675Z,9.67
2022-09-28T18:48:47.368Z,9.65
2022-09-28T18:51:15.461Z,9.70
2022-09-28T18:53:43.577Z,9.70
2022-09-28T18:56:14.871Z,9.73
2022-09-28T18:58:43.810Z,9.77
2022-09-28T19:01:29.355Z,9.73
2022-09-28T19:04:00.036Z,9.77
2022-09-28T19:06:28.815Z,9.76
2022-09-28T19:08:57.898Z,9.80
2022-09-28T19:11:27.651Z,9.79
2022-09-28T19:13:56.554Z,9.78
2022-09-28T19:16:26.034Z,9.79
2022-09-28T19:18:54.178Z,9.84
2022-09-28T19:21:22.386Z,9.81
2022-09-28T19:23:53.559Z,9.80
2022-09-28T19:26:23.499Z,9.82
2022-09-28T19:28:53.546Z,9.81
2022-09-28T19:31:22.512Z,9.76
2022-09-28T19:33:50.835Z,9.72
2022-09-28T19:36:21.786Z,9.75
2022-09-28T19:38:49.682Z,9.71
2022-09-28T19:41:39.406Z,9.70
2022-09-28T19:44:13.483Z,9.64
2022-09-28T19:46:41.885Z,9.67
2022-09-28T19:49:11.353Z,9.61
2022-09-28T19:51:51.477Z,9.57
2022-09-28T19:54:33.149Z,9.59
2022-09-28T19:57:07.578Z,9.48
2022-09-28T19:59:37.959Z,9.49
2022-09-28T20:02:07.490Z,9.49
2022-09-28T20:04:35.791Z,9.49
2022-09-28T20:07:04.230Z,9.49
2022-09-28T20:09:32.629Z,9.50
2022-09-28T20:12:00.437Z,9.52
2022-09-28T20:14:33.149Z,9.62
2022-09-28T20:17:05.909Z,9.58
2022-09-28T20:19:33.797Z,9.59
2022-09-28T20:22:02.991Z,9.55
2022-09-28T20:24:31.574Z,9.52
2022-09-28T20:27:01.367Z,9.63
2022-09-28T20:29:31.428Z,9.63
2022-09-28T20:32:00.376Z,9.61
2022-09-28T20:34:29.919Z,9.68
2022-09-28T20:36:57.804Z,9.84
2022-09-28T20:39:26.103Z,9.79
2022-09-28T20:41:56.254Z,9.75
2022-09-28T20:44:24.442Z,9.80
2022-09-28T20:46:52.655Z,9.93
2022-09-28T20:49:20.790Z,9.78
2022-09-28T20:51:50.067Z,9.92
2022-09-28T20:54:18.295Z,9.93
2022-09-28T20:56:48.066Z,9.90
2022-09-28T20:59:16.466Z,9.83
2022-09-28T21:01:44.521Z,9.86
2022-09-28T21:04:12.697Z,9.94
2022-09-28T21:06:42.184Z,9.93
2022-09-28T21:09:13.047Z,9.86
2022-09-28T21:11:41.488Z,9.84
2022-09-28T21:14:10.320Z,9.78
2022-09-28T21:16:38.820Z,9.82
2022-09-28T21:19:06.638Z,9.84
2022-09-28T21:21:34.739Z,9.72
2022-09-28T21:24:03.112Z,9.73
2022-09-28T21:26:32.924Z,9.73
2022-09-28T21:29:02.035Z,9.67
2022-09-28T21:31:32.428Z,9.70
2022-09-28T21:34:00.836Z,9.66
2022-09-28T21:36:28.859Z,9.61
2022-09-28T21:38:56.777Z,9.57
2022-09-28T21:41:24.785Z,9.61
2022-09-28T21:43:54.022Z,9.69
2022-09-28T21:46:21.964Z,9.63
2022-09-28T21:48:53.354Z,9.55
2022-09-28T21:51:21.517Z,9.59
2022-09-28T21:53:49.710Z,9.49
2022-09-28T21:56:17.639Z,9.46
2022-09-28T21:58:45.451Z,9.44
2022-09-28T22:01:16.519Z,9.40
2022-09-28T22:03:46.572Z,9.28
2022-09-28T22:06:15.168Z,9.17
2022-09-28T22:08:43.008Z,9.15
2022-09-28T22:11:12.418Z,9.07
2022-09-28T22:13:42.146Z,8.98
2022-09-28T22:16:10.650Z,8.92
2022-09-28T22:18:40.490Z,8.87
2022-09-28T22:21:10.005Z,8.77
2022-09-28T22:23:38.837Z,8.71
2022-09-28T22:26:08.399Z,8.66
2022-09-28T22:28:36.323Z,8.65
2022-09-28T22:31:04.895Z,8.58
2022-09-28T22:33:32.770Z,8.54
2022-09-28T22:36:02.470Z,8.51
2022-09-28T22:38:32.510Z,8.48
2022-09-28T22:41:00.523Z,8.51
2022-09-28T22:43:28.528Z,8.45
2022-09-28T22:46:03.314Z,8.40
2022-09-28T22:48:31.320Z,8.32
2022-09-28T22:50:59.501Z,8.29
2022-09-28T22:53:29.453Z,8.32
2022-09-28T22:55:57.774Z,8.23
2022-09-28T22:58:26.101Z,8.22
2022-09-28T23:00:53.979Z,8.19
2022-09-28T23:03:21.827Z,8.26
2022-09-28T23:05:54.005Z,8.24
2022-09-28T23:08:21.947Z,8.22
2022-09-28T23:10:51.710Z,8.21
2022-09-28T23:13:19.543Z,8.14
2022-09-28T23:15:55.961Z,8.23
2022-09-28T23:18:23.992Z,8.21
2022-09-28T23:20:55.313Z,8.16
2022-09-28T23:23:23.338Z,8.13
2022-09-28T23:25:52.679Z,8.10
2022-09-28T23:28:22.233Z,8.16
2022-09-28T23:30:50.688Z,8.19
2022-09-28T23:33:20.030Z,8.11
2022-09-28T23:35:48.167Z,8.14
2022-09-28T23:38:17.917Z,8.05
2022-09-28T23:40:46.328Z,8.04
2022-09-28T23:43:15.803Z,8.01
2022-09-28T23:45:43.963Z,7.99
2022-09-28T23:48:14.919Z,7.99
2022-09-28T23:50:43.078Z,7.96
2022-09-28T23:53:11.799Z,7.96
2022-09-28T23:55:39.684Z,7.96
2022-09-28T23:58:07.691Z,7.94
